Schedule Details

Flight Number: CPX214
Departure: Benito Juárez International Airport (MMMX) at 0600 UTC
Arrival: Don Miguel Hidalgo y Costilla International Airport (MMGL) at 0700 UTC
Route: TLC6A TLC UJ18 UPN UJ3 ONGEL ONGEL1A


Current Weather Information
MMMX 152045Z 00000KT 7SM SKC 27/03 A3021 NOSIG RMK SLP023 57037 959 HZY DSNT CU SE-S
MMGL 152043Z 35004KT 10SM SKC 28/06 A3008 RMK SLP072 57033 952

Route Map